createdAt,value
2022-12-15T00:02:19.618Z,0.70
2022-12-15T00:05:05.385Z,0.40
2022-12-15T00:07:50.976Z,0.20
2022-12-15T00:10:36.691Z,0.30
2022-12-15T00:13:21.863Z,0.50
2022-12-15T00:16:07.019Z,0.70
2022-12-15T00:18:53.757Z,0.90
2022-12-15T00:21:38.722Z,1.00
2022-12-15T00:24:24.293Z,1.10
2022-12-15T00:27:09.865Z,1.10
2022-12-15T00:29:54.881Z,1.20
2022-12-15T00:32:41.010Z,1.20
2022-12-15T00:35:27.705Z,1.30
2022-12-15T00:38:12.854Z,1.40
2022-12-15T00:40:40.579Z,1.50
2022-12-15T00:43:11.805Z,1.50
2022-12-15T00:45:57.279Z,1.50
2022-12-15T00:48:24.967Z,1.60
2022-12-15T00:50:53.033Z,1.60
2022-12-15T00:53:38.193Z,1.50
2022-12-15T00:56:23.789Z,1.50
2022-12-15T00:59:09.325Z,1.50
2022-12-15T01:01:54.526Z,1.50
2022-12-15T01:04:40.069Z,1.40
2022-12-15T01:07:26.477Z,1.30
2022-12-15T01:10:11.646Z,1.40
2022-12-15T01:12:56.661Z,1.40
2022-12-15T01:15:41.665Z,1.50
2022-12-15T01:18:26.946Z,1.50
2022-12-15T01:20:57.874Z,1.50
2022-12-15T01:23:27.218Z,1.50
2022-12-15T01:25:55.246Z,1.50
2022-12-15T01:28:23.236Z,1.50
2022-12-15T01:30:51.240Z,1.50
2022-12-15T01:33:19.883Z,1.50
2022-12-15T01:35:55.764Z,1.50
2022-12-15T01:38:23.523Z,1.60
2022-12-15T01:40:52.823Z,1.60
2022-12-15T01:43:22.329Z,1.60
2022-12-15T01:46:01.673Z,1.70
2022-12-15T01:48:31.519Z,1.70
2022-12-15T01:51:05.477Z,1.70
2022-12-15T01:53:34.570Z,1.60
2022-12-15T01:56:04.654Z,1.70
2022-12-15T01:58:32.348Z,1.80
2022-12-15T02:01:01.819Z,1.70
2022-12-15T02:03:30.147Z,1.80
2022-12-15T02:05:59.134Z,1.80
2022-12-15T02:08:26.850Z,1.70
2022-12-15T02:11:03.095Z,1.70
2022-12-15T02:13:36.325Z,1.60
2022-12-15T02:16:09.835Z,1.50
2022-12-15T02:18:42.008Z,1.40
2022-12-15T02:21:11.017Z,1.40
2022-12-15T02:24:03.091Z,1.40
2022-12-15T02:26:48.506Z,1.40
2022-12-15T02:29:26.395Z,1.40
2022-12-15T02:31:58.105Z,1.50
2022-12-15T02:34:28.270Z,1.50
2022-12-15T02:36:58.165Z,1.40
2022-12-15T02:39:26.208Z,1.40
2022-12-15T02:41:54.284Z,1.40
2022-12-15T02:44:23.484Z,1.40
2022-12-15T02:47:00.295Z,1.40
2022-12-15T02:49:33.306Z,1.30
2022-12-15T02:52:09.170Z,1.20
2022-12-15T02:54:42.085Z,1.20
2022-12-15T02:57:13.797Z,1.20
2022-12-15T02:59:44.057Z,1.20
2022-12-15T03:02:13.675Z,1.30
2022-12-15T03:04:43.547Z,1.30
2022-12-15T03:07:11.491Z,1.30
2022-12-15T03:09:39.420Z,1.30
2022-12-15T03:12:07.550Z,1.30
2022-12-15T03:14:35.244Z,1.20
2022-12-15T03:17:04.091Z,1.20
2022-12-15T03:19:33.095Z,1.20
2022-12-15T03:22:00.766Z,1.20
2022-12-15T03:24:28.461Z,1.20
2022-12-15T03:26:56.322Z,1.20
2022-12-15T03:29:24.058Z,1.10
2022-12-15T03:31:51.781Z,1.10
2022-12-15T03:34:19.550Z,1.00
2022-12-15T03:36:48.610Z,0.90
2022-12-15T03:39:16.319Z,0.90
2022-12-15T03:41:43.985Z,0.90
2022-12-15T03:44:11.672Z,0.80
2022-12-15T03:46:39.381Z,0.90
2022-12-15T03:49:07.067Z,1.00
2022-12-15T03:51:34.740Z,1.10
2022-12-15T03:54:03.772Z,1.00
2022-12-15T03:56:32.375Z,1.00
2022-12-15T03:59:00.385Z,1.00
2022-12-15T04:01:29.824Z,1.00
2022-12-15T04:04:00.791Z,0.80
2022-12-15T04:06:29.093Z,0.70
2022-12-15T04:08:56.780Z,0.80
2022-12-15T04:11:25.800Z,0.70
2022-12-15T04:13:53.713Z,0.80
2022-12-15T04:16:21.529Z,0.80
2022-12-15T04:19:09.855Z,0.80
2022-12-15T04:21:36.567Z,0.70
2022-12-15T04:24:21.800Z,0.60
2022-12-15T04:27:08.323Z,0.60
2022-12-15T04:29:53.466Z,0.50
2022-12-15T04:32:38.496Z,0.50
2022-12-15T04:35:24.436Z,0.50
2022-12-15T04:38:09.512Z,0.40
2022-12-15T04:40:54.687Z,0.30
2022-12-15T04:43:41.054Z,0.40
2022-12-15T04:46:26.147Z,0.30
2022-12-15T04:49:11.504Z,0.50
2022-12-15T04:51:56.614Z,0.30
2022-12-15T04:54:41.781Z,0.20
2022-12-15T04:57:26.845Z,0.20
2022-12-15T05:00:13.136Z,0.30
2022-12-15T05:02:58.231Z,-0.10
2022-12-15T05:05:43.230Z,-0.30
2022-12-15T05:08:28.443Z,-0.20
2022-12-15T05:11:13.430Z,-0.10
2022-12-15T05:13:58.583Z,-0.20
2022-12-15T05:16:44.967Z,-0.20
2022-12-15T05:19:30.186Z,-0.30
2022-12-15T05:22:15.330Z,-0.20
2022-12-15T05:25:00.461Z,-0.10
2022-12-15T05:27:45.463Z,0.00
2022-12-15T05:30:30.534Z,0.10
2022-12-15T05:33:03.915Z,0.00
2022-12-15T05:35:31.625Z,0.10
2022-12-15T05:37:59.302Z,0.00
2022-12-15T05:40:27.024Z,-0.20
2022-12-15T05:42:54.727Z,-0.70
2022-12-15T05:45:22.447Z,-1.20
2022-12-15T05:47:51.461Z,-1.00
2022-12-15T05:50:20.833Z,-0.80
2022-12-15T05:52:49.822Z,-0.90
2022-12-15T05:55:17.792Z,-1.40
2022-12-15T05:57:45.789Z,-1.80
2022-12-15T06:00:13.983Z,-2.30
2022-12-15T06:02:42.007Z,-2.80
2022-12-15T06:05:09.957Z,-3.10
2022-12-15T06:07:39.118Z,-3.40
2022-12-15T06:10:07.086Z,-3.50
2022-12-15T06:12:34.784Z,-3.60
2022-12-15T06:15:02.465Z,-3.70
2022-12-15T06:17:30.446Z,-4.00
2022-12-15T06:19:58.255Z,-3.70
2022-12-15T06:22:25.996Z,-3.70
2022-12-15T06:24:55.018Z,-3.70
2022-12-15T06:27:22.721Z,-3.70
2022-12-15T06:29:50.576Z,-3.60
2022-12-15T06:32:18.354Z,-3.60
2022-12-15T06:34:46.173Z,-3.60
2022-12-15T06:37:13.843Z,-3.60
2022-12-15T06:39:41.510Z,-3.70
2022-12-15T06:42:10.562Z,-3.70
2022-12-15T06:44:38.222Z,-3.70
2022-12-15T06:47:06.330Z,-3.70
2022-12-15T06:49:34.076Z,-3.70
2022-12-15T06:52:01.755Z,-3.70
2022-12-15T06:54:29.444Z,-3.60
2022-12-15T06:56:57.146Z,-3.60
2022-12-15T06:59:27.380Z,-3.60
2022-12-15T07:01:55.475Z,-3.50
2022-12-15T07:04:23.331Z,-3.40
2022-12-15T07:06:51.072Z,-3.40
2022-12-15T07:09:18.769Z,-3.40
2022-12-15T07:11:49.222Z,-3.40
2022-12-15T07:14:16.904Z,-3.50
2022-12-15T07:16:46.317Z,-3.50
2022-12-15T07:19:14.063Z,-3.50
2022-12-15T07:21:42.378Z,-3.60
2022-12-15T07:24:10.909Z,-3.60
2022-12-15T07:26:38.656Z,-3.80
2022-12-15T07:29:06.647Z,-3.70
2022-12-15T07:31:34.491Z,-3.80
2022-12-15T07:34:03.635Z,-3.80
2022-12-15T07:36:31.406Z,-3.90
2022-12-15T07:39:01.223Z,-3.80
2022-12-15T07:41:29.956Z,-3.80
2022-12-15T07:43:57.951Z,-3.80
2022-12-15T07:46:27.295Z,-3.70
2022-12-15T07:48:55.026Z,-3.80
2022-12-15T07:51:24.280Z,-3.80
2022-12-15T07:53:52.094Z,-3.80
2022-12-15T07:56:20.382Z,-3.80
2022-12-15T07:58:48.073Z,-3.80
2022-12-15T08:01:16.116Z,-3.90
2022-12-15T08:03:44.985Z,-3.80
2022-12-15T08:06:13.661Z,-3.90
2022-12-15T08:08:44.125Z,-3.80
2022-12-15T08:11:13.310Z,-3.80
2022-12-15T08:16:30.042Z,-3.70
2022-12-15T08:18:58.029Z,-3.70
2022-12-15T08:21:25.809Z,-3.70
2022-12-15T08:23:55.216Z,-3.60
2022-12-15T08:26:28.460Z,-3.60
2022-12-15T08:29:11.856Z,-3.50
2022-12-15T08:31:45.633Z,-3.40
2022-12-15T08:34:13.479Z,-3.40
2022-12-15T08:36:41.148Z,-3.30
2022-12-15T08:39:10.189Z,-3.40
2022-12-15T08:41:37.912Z,-3.40
2022-12-15T08:44:06.003Z,-3.40
2022-12-15T08:46:34.736Z,-3.30
2022-12-15T08:49:02.936Z,-3.30
2022-12-15T08:51:32.109Z,-3.40
2022-12-15T08:54:00.636Z,-3.40
2022-12-15T08:56:30.145Z,-3.50
2022-12-15T08:58:58.878Z,-3.50
2022-12-15T09:01:27.828Z,-3.40
2022-12-15T09:03:56.606Z,-3.40
2022-12-15T09:06:25.597Z,-3.40
2022-12-15T09:08:54.759Z,-3.40
2022-12-15T09:11:22.450Z,-3.40
2022-12-15T09:13:51.503Z,-3.40
2022-12-15T09:16:19.710Z,-3.30
2022-12-15T09:18:48.383Z,-3.20
2022-12-15T09:21:16.631Z,-3.20
2022-12-15T09:23:47.940Z,-3.10
2022-12-15T09:26:16.200Z,-3.00
2022-12-15T09:28:44.254Z,-2.90
2022-12-15T09:31:22.123Z,-2.90
2022-12-15T09:33:50.470Z,-2.80
2022-12-15T09:36:18.231Z,-2.70
2022-12-15T09:38:45.939Z,-2.70
2022-12-15T09:41:19.318Z,-2.70
2022-12-15T09:43:49.782Z,-2.70
2022-12-15T09:46:24.264Z,-2.70
2022-12-15T09:48:52.542Z,-2.60
2022-12-15T09:51:20.293Z,-2.60
2022-12-15T09:53:56.356Z,-2.60
2022-12-15T09:56:28.415Z,-2.60
2022-12-15T09:58:59.950Z,-2.60
2022-12-15T10:01:33.473Z,-2.60
2022-12-15T10:04:03.454Z,-2.50
2022-12-15T10:06:33.810Z,-2.50
2022-12-15T10:09:03.230Z,-2.40
2022-12-15T10:11:40.674Z,-2.40
2022-12-15T10:14:13.131Z,-2.30
2022-12-15T10:16:47.727Z,-2.20
2022-12-15T10:19:20.723Z,-2.20
2022-12-15T10:25:08.595Z,-2.10
2022-12-15T10:27:32.779Z,-2.10
2022-12-15T10:30:02.030Z,-2.20
2022-12-15T10:32:42.407Z,-2.20
2022-12-15T10:35:15.152Z,-2.20
2022-12-15T10:37:43.527Z,-2.20
2022-12-15T10:40:15.658Z,-2.30
2022-12-15T10:42:47.536Z,-2.20
2022-12-15T10:45:31.174Z,-2.20
2022-12-15T10:48:02.452Z,-2.10
2022-12-15T10:50:30.525Z,-2.20
2022-12-15T10:52:58.199Z,-2.30
2022-12-15T10:55:33.478Z,-2.10
2022-12-15T10:58:02.522Z,-2.10
2022-12-15T11:00:30.989Z,-2.00
2022-12-15T11:03:00.612Z,-2.00
2022-12-15T11:05:28.639Z,-2.00
2022-12-15T11:07:56.926Z,-2.00
2022-12-15T11:10:25.883Z,-2.00
2022-12-15T11:13:13.506Z,-2.10
2022-12-15T11:15:43.197Z,-2.00
2022-12-15T11:18:17.083Z,-1.90
2022-12-15T11:20:46.644Z,-1.90
2022-12-15T11:23:19.927Z,-1.90
2022-12-15T11:25:50.592Z,-1.90
2022-12-15T11:28:21.816Z,-1.90
2022-12-15T11:30:54.659Z,-1.90
2022-12-15T11:33:23.743Z,-1.80
2022-12-15T11:35:58.439Z,-1.90
2022-12-15T11:38:29.667Z,-1.80
2022-12-15T11:40:59.307Z,-1.80
2022-12-15T11:43:36.570Z,-1.90
2022-12-15T11:46:10.860Z,-1.80
2022-12-15T11:48:42.060Z,-1.70
2022-12-15T11:51:13.244Z,-1.70
2022-12-15T11:53:54.186Z,-1.70
2022-12-15T11:56:26.852Z,-1.70
2022-12-15T11:59:11.079Z,-1.70
2022-12-15T12:01:52.678Z,-1.70
2022-12-15T12:04:26.080Z,-1.70
2022-12-15T12:07:00.680Z,-1.70
2022-12-15T12:09:33.832Z,-1.70
2022-12-15T12:12:14.488Z,-1.60
2022-12-15T12:14:52.297Z,-1.60
2022-12-15T12:17:28.130Z,-1.40
2022-12-15T12:19:59.583Z,-1.30
2022-12-15T12:22:30.607Z,-1.30
2022-12-15T12:25:00.745Z,-1.20
2022-12-15T12:27:32.410Z,-1.20
2022-12-15T12:30:02.867Z,-1.20
2022-12-15T12:32:34.726Z,-1.30
2022-12-15T12:35:31.249Z,-1.30
2022-12-15T12:37:59.454Z,-1.40
2022-12-15T12:40:32.210Z,-1.40
2022-12-15T12:43:00.964Z,-1.30
2022-12-15T12:45:31.949Z,-1.40
2022-12-15T12:48:02.226Z,-1.30
2022-12-15T12:50:31.726Z,-1.40
2022-12-15T12:53:01.864Z,-1.30
2022-12-15T12:55:35.800Z,-1.20
2022-12-15T12:58:03.562Z,-1.20
2022-12-15T13:00:32.426Z,-1.30
2022-12-15T13:03:16.247Z,-1.30
2022-12-15T13:05:46.618Z,-1.30
2022-12-15T13:08:20.152Z,-1.30
2022-12-15T13:10:50.894Z,-1.20
2022-12-15T13:13:34.117Z,-1.20
2022-12-15T13:16:05.892Z,-1.20
2022-12-15T13:18:55.564Z,-1.20
2022-12-15T13:21:38.115Z,-1.10
2022-12-15T13:24:07.322Z,-1.10
2022-12-15T13:26:35.196Z,-1.30
2022-12-15T13:29:02.868Z,-1.30
2022-12-15T13:31:39.746Z,-1.30
2022-12-15T13:34:15.705Z,-1.40
2022-12-15T13:36:46.145Z,-1.40
2022-12-15T13:39:36.762Z,-1.60
2022-12-15T13:42:34.261Z,-1.60
2022-12-15T13:45:29.251Z,-1.60
2022-12-15T13:47:58.267Z,-1.60
2022-12-15T13:50:31.809Z,-1.60
2022-12-15T13:55:57.944Z,-1.60
2022-12-15T13:58:28.253Z,-1.50
2022-12-15T14:00:57.932Z,-1.50
2022-12-15T14:03:28.159Z,-1.60
2022-12-15T14:05:57.017Z,-1.60
2022-12-15T14:08:27.847Z,-1.70
2022-12-15T14:10:56.559Z,-1.70
2022-12-15T14:13:25.494Z,-1.60
2022-12-15T14:15:54.365Z,-1.70
2022-12-15T14:18:23.856Z,-1.70
2022-12-15T14:20:53.232Z,-1.70
2022-12-15T14:23:21.223Z,-1.80
2022-12-15T14:25:55.897Z,-1.90
2022-12-15T14:28:27.965Z,-2.00
2022-12-15T14:30:57.878Z,-2.10
2022-12-15T14:33:29.761Z,-2.00
2022-12-15T14:35:59.910Z,-2.00
2022-12-15T14:38:29.150Z,-1.90
2022-12-15T14:40:58.465Z,-2.00
2022-12-15T14:43:28.681Z,-2.00
2022-12-15T14:45:58.110Z,-2.00
2022-12-15T14:48:41.049Z,-2.10
2022-12-15T14:51:12.355Z,-2.10
2022-12-15T14:53:41.848Z,-2.10
2022-12-15T14:56:29.420Z,-2.10
2022-12-15T14:59:00.260Z,-2.20
2022-12-15T15:01:29.781Z,-2.20
2022-12-15T15:03:11.382Z,-1.60
2022-12-15T15:03:12.252Z,-2.20
2022-12-15T15:03:58.425Z,-2.30
2022-12-15T15:06:30.650Z,-2.30
2022-12-15T15:09:04.041Z,-2.30
2022-12-15T15:11:33.963Z,-2.40
2022-12-15T15:14:04.848Z,-2.40
2022-12-15T15:16:32.637Z,-2.30
2022-12-15T15:19:01.775Z,-2.40
2022-12-15T15:21:31.844Z,-2.40
2022-12-15T15:24:00.546Z,-2.40
2022-12-15T15:26:28.536Z,-2.50
2022-12-15T15:28:56.424Z,-2.60
2022-12-15T15:31:27.978Z,-2.60
2022-12-15T15:33:56.898Z,-2.60
2022-12-15T15:36:28.479Z,-2.70
2022-12-15T15:38:58.098Z,-2.60
2022-12-15T15:41:29.699Z,-2.60
2022-12-15T15:43:59.353Z,-2.60
2022-12-15T15:46:28.937Z,-2.60
2022-12-15T15:48:57.817Z,-2.70
2022-12-15T15:51:26.416Z,-2.70
2022-12-15T15:53:54.606Z,-2.80
2022-12-15T15:56:23.620Z,-2.80
2022-12-15T15:58:51.288Z,-2.80
2022-12-15T16:01:19.103Z,-2.80
2022-12-15T16:03:46.922Z,-2.80
2022-12-15T16:06:16.919Z,-2.90
2022-12-15T16:08:45.079Z,-2.80
2022-12-15T16:11:13.004Z,-2.80
2022-12-15T16:13:42.053Z,-2.80
2022-12-15T16:16:14.509Z,-2.90
2022-12-15T16:18:42.216Z,-2.90
2022-12-15T16:21:11.212Z,-2.80
2022-12-15T16:23:38.914Z,-2.90
2022-12-15T16:26:06.845Z,-2.90
2022-12-15T16:28:34.790Z,-3.00
2022-12-15T16:31:04.103Z,-3.00
2022-12-15T16:33:31.830Z,-3.10
2022-12-15T16:35:59.614Z,-3.10
2022-12-15T16:38:28.747Z,-3.10
2022-12-15T16:40:57.357Z,-3.10
2022-12-15T16:43:29.012Z,-3.10
2022-12-15T16:46:01.502Z,-3.00
2022-12-15T16:48:31.040Z,-2.90
2022-12-15T16:50:59.190Z,-2.90
2022-12-15T16:53:28.263Z,-2.90
2022-12-15T16:55:56.936Z,-2.90
2022-12-15T16:58:25.464Z,-3.00
2022-12-15T17:00:53.753Z,-3.00
2022-12-15T17:03:23.290Z,-3.10
2022-12-15T17:05:53.570Z,-3.10
2022-12-15T17:08:23.782Z,-3.20
2022-12-15T17:10:51.631Z,-3.20
2022-12-15T17:13:22.450Z,-3.10
2022-12-15T17:15:50.195Z,-3.10
2022-12-15T17:18:17.919Z,-3.00
2022-12-15T17:20:45.823Z,-3.10
2022-12-15T17:23:17.642Z,-3.00
2022-12-15T17:26:18.484Z,-3.00
2022-12-15T17:28:36.583Z,-2.90
2022-12-15T17:31:04.635Z,-2.80
2022-12-15T17:33:35.731Z,-2.80
2022-12-15T17:36:05.126Z,-2.80
2022-12-15T17:38:34.251Z,-2.80
2022-12-15T17:41:01.954Z,-2.70
2022-12-15T17:43:35.711Z,-2.70
2022-12-15T17:46:04.014Z,-2.60
2022-12-15T17:48:31.917Z,-2.60
2022-12-15T17:50:59.709Z,-2.60
2022-12-15T17:53:27.391Z,-2.50
2022-12-15T17:55:56.591Z,-2.50
2022-12-15T17:58:25.211Z,-2.70
2022-12-15T18:00:53.837Z,-2.70
2022-12-15T18:03:21.901Z,-2.70
2022-12-15T18:05:51.056Z,-2.70
2022-12-15T18:08:20.048Z,-2.70
2022-12-15T18:10:48.266Z,-2.70
2022-12-15T18:13:17.932Z,-2.80
2022-12-15T18:15:46.566Z,-2.80
2022-12-15T18:18:14.870Z,-2.70
2022-12-15T18:20:42.567Z,-2.70
2022-12-15T18:23:13.843Z,-2.80
2022-12-15T18:25:41.907Z,-2.80
2022-12-15T18:28:16.305Z,-2.90
2022-12-15T18:30:45.354Z,-3.00
2022-12-15T18:33:13.121Z,-3.10
2022-12-15T18:35:42.066Z,-3.10
2022-12-15T18:38:17.203Z,-3.30
2022-12-15T18:40:45.893Z,-3.30
2022-12-15T18:43:15.282Z,-3.30
2022-12-15T18:45:43.436Z,-3.40
2022-12-15T18:48:16.139Z,-3.60
2022-12-15T18:50:43.915Z,-3.60
2022-12-15T18:53:15.540Z,-3.70
2022-12-15T18:55:43.226Z,-3.70
2022-12-15T18:58:18.790Z,-3.80
2022-12-15T19:00:46.619Z,-3.70
2022-12-15T19:03:16.074Z,-3.80
2022-12-15T19:05:43.969Z,-3.80
2022-12-15T19:08:13.360Z,-3.90
2022-12-15T19:10:42.961Z,-3.90
2022-12-15T19:13:13.757Z,-3.90
2022-12-15T19:15:41.425Z,-4.00
2022-12-15T19:18:26.187Z,-4.00
2022-12-15T19:21:12.799Z,-3.90
2022-12-15T19:23:40.478Z,-3.90
2022-12-15T19:26:09.763Z,-3.80
2022-12-15T19:28:37.424Z,-3.80
2022-12-15T19:31:05.212Z,-3.70
2022-12-15T19:33:33.309Z,-3.70
2022-12-15T19:36:02.797Z,-3.70
2022-12-15T19:38:32.324Z,-3.60
2022-12-15T19:41:00.277Z,-3.60
2022-12-15T19:43:28.329Z,-3.50
2022-12-15T19:45:56.063Z,-3.50
2022-12-15T19:48:24.474Z,-3.50
2022-12-15T19:50:55.000Z,-3.60
2022-12-15T19:53:26.219Z,-3.60
2022-12-15T19:55:54.984Z,-3.60
2022-12-15T19:58:28.486Z,-3.60
2022-12-15T20:00:57.758Z,-3.60
2022-12-15T20:03:25.637Z,-3.60
2022-12-15T20:05:54.349Z,-3.70
2022-12-15T20:08:24.214Z,-3.70
2022-12-15T20:10:53.819Z,-3.70
2022-12-15T20:13:21.894Z,-3.60
2022-12-15T20:15:49.616Z,-3.70
2022-12-15T20:18:17.325Z,-3.60
2022-12-15T20:20:46.238Z,-3.50
2022-12-15T20:23:15.802Z,-3.40
2022-12-15T20:25:43.788Z,-3.40
2022-12-15T20:28:16.854Z,-3.40
2022-12-15T20:30:44.891Z,-3.30
2022-12-15T20:33:13.586Z,-3.20
2022-12-15T20:35:41.648Z,-3.20
2022-12-15T20:38:18.915Z,-3.10
2022-12-15T20:40:48.934Z,-3.10
2022-12-15T20:43:18.902Z,-3.10
2022-12-15T20:45:47.319Z,-3.00
2022-12-15T20:48:15.784Z,-3.10
2022-12-15T20:50:45.009Z,-3.10
2022-12-15T20:53:15.127Z,-3.10
2022-12-15T20:55:42.793Z,-3.10
2022-12-15T20:58:10.480Z,-3.20
2022-12-15T21:00:39.772Z,-3.30
2022-12-15T21:03:18.163Z,-3.40
2022-12-15T21:05:45.925Z,-3.50
2022-12-15T21:08:17.965Z,-3.60
2022-12-15T21:10:46.151Z,-3.70
2022-12-15T21:13:16.359Z,-3.70
2022-12-15T21:15:45.473Z,-3.80
2022-12-15T21:18:51.950Z,-3.90
2022-12-15T21:21:01.345Z,-3.90
2022-12-15T21:23:29.725Z,-3.90
2022-12-15T21:25:58.578Z,-3.90
2022-12-15T21:28:26.261Z,-4.00
2022-12-15T21:30:55.498Z,-4.00
2022-12-15T21:33:23.247Z,-4.00
2022-12-15T21:35:50.936Z,-3.80
2022-12-15T21:38:28.473Z,-2.90
2022-12-15T21:40:59.601Z,-2.60
2022-12-15T21:43:28.725Z,-2.10
2022-12-15T21:45:58.190Z,-1.80
2022-12-15T21:48:43.544Z,-1.30
2022-12-15T21:51:13.288Z,-1.00
2022-12-15T21:53:41.021Z,-0.80
2022-12-15T21:56:09.907Z,-0.60
2022-12-15T21:58:37.557Z,-0.60
2022-12-15T22:01:06.781Z,-0.50
2022-12-15T22:03:36.427Z,-0.60
2022-12-15T22:06:04.414Z,-0.80
2022-12-15T22:08:32.460Z,-0.80
2022-12-15T22:11:00.438Z,-1.20
2022-12-15T22:13:28.074Z,-1.60
2022-12-15T22:15:55.871Z,-1.40
2022-12-15T22:18:25.305Z,-1.20
2022-12-15T22:20:52.977Z,-0.90
2022-12-15T22:23:21.215Z,-0.60
2022-12-15T22:25:50.813Z,-0.40
2022-12-15T22:28:21.521Z,-0.10
2022-12-15T22:30:50.026Z,0.00
2022-12-15T22:33:23.709Z,0.10
2022-12-15T22:35:53.281Z,0.00
2022-12-15T22:38:23.533Z,-0.10
2022-12-15T22:40:53.463Z,-0.30
2022-12-15T22:43:25.249Z,-0.70
2022-12-15T22:45:53.788Z,-1.00
2022-12-15T22:48:23.773Z,-0.90
2022-12-15T22:50:52.833Z,-1.10
2022-12-15T22:53:22.814Z,-1.20
2022-12-15T22:55:50.928Z,-1.30
2022-12-15T22:58:24.903Z,-1.30
2022-12-15T23:00:53.346Z,-1.40
2022-12-15T23:03:21.206Z,-1.60
2022-12-15T23:05:49.157Z,-1.80
2022-12-15T23:08:18.210Z,-1.90
2022-12-15T23:11:09.087Z,-1.90
2022-12-15T23:13:36.741Z,-1.80
2022-12-15T23:16:22.164Z,-1.60
2022-12-15T23:18:51.678Z,-1.70
2022-12-15T23:21:19.630Z,-1.40
2022-12-15T23:23:49.021Z,-1.50
2022-12-15T23:26:17.479Z,-1.80
2022-12-15T23:28:45.137Z,-1.90
2022-12-15T23:31:12.904Z,-1.60
2022-12-15T23:33:44.800Z,-1.70
2022-12-15T23:36:12.668Z,-1.80
2022-12-15T23:38:40.362Z,-1.90
2022-12-15T23:41:09.344Z,-2.10
2022-12-15T23:43:37.699Z,-1.80
2022-12-15T23:46:06.298Z,-1.80
2022-12-15T23:48:35.859Z,-1.60
2022-12-15T23:51:04.551Z,-1.60
2022-12-15T23:53:33.030Z,-1.60
2022-12-15T23:56:04.804Z,-1.90
2022-12-15T23:58:33.876Z,-2.00
